sensor_id;sensor_type;location;lat;lon;timestamp;P1;durP1;ratioP1;P2;durP2;ratioP2
60935;SDS011;46804;51.786;19.520;2023-04-03T00:00:42;3.38;;;2.03;;
60935;SDS011;46804;51.786;19.520;2023-04-03T00:04:51;2.85;;;1.77;;
60935;SDS011;46804;51.786;19.520;2023-04-03T00:08:51;3.72;;;1.90;;
60935;SDS011;46804;51.786;19.520;2023-04-03T00:12:53;3.25;;;2.40;;
60935;SDS011;46804;51.786;19.520;2023-04-03T00:16:53;5.82;;;2.00;;
60935;SDS011;46804;51.786;19.520;2023-04-03T00:20:54;3.83;;;1.83;;
60935;SDS011;46804;51.786;19.520;2023-04-03T00:24:56;4.10;;;2.40;;
60935;SDS011;46804;51.786;19.520;2023-04-03T00:28:56;1.88;;;1.67;;
60935;SDS011;46804;51.786;19.520;2023-04-03T00:32:57;2.85;;;2.05;;
60935;SDS011;46804;51.786;19.520;2023-04-03T00:36:58;2.55;;;1.92;;
60935;SDS011;46804;51.786;19.520;2023-04-03T00:40:58;2.30;;;1.50;;
60935;SDS011;46804;51.786;19.520;2023-04-03T00:49:01;5.05;;;2.85;;
60935;SDS011;46804;51.786;19.520;2023-04-03T00:53:02;2.38;;;1.80;;
60935;SDS011;46804;51.786;19.520;2023-04-03T00:57:06;4.63;;;1.90;;
60935;SDS011;46804;51.786;19.520;2023-04-03T01:01:08;4.23;;;2.17;;
60935;SDS011;46804;51.786;19.520;2023-04-03T01:05:12;3.38;;;2.03;;
60935;SDS011;46804;51.786;19.520;2023-04-03T01:09:17;2.63;;;1.52;;
60935;SDS011;46804;51.786;19.520;2023-04-03T01:13:20;3.30;;;2.08;;
60935;SDS011;46804;51.786;19.520;2023-04-03T01:21:53;3.75;;;2.03;;
60935;SDS011;46804;51.786;19.520;2023-04-03T01:26:00;10.25;;;1.80;;
60935;SDS011;46804;51.786;19.520;2023-04-03T01:30:03;2.45;;;1.50;;
60935;SDS011;46804;51.786;19.520;2023-04-03T01:34:04;3.88;;;2.00;;
60935;SDS011;46804;51.786;19.520;2023-04-03T01:38:04;3.58;;;1.48;;
60935;SDS011;46804;51.786;19.520;2023-04-03T01:42:05;3.33;;;1.77;;
60935;SDS011;46804;51.786;19.520;2023-04-03T01:46:06;1.52;;;1.42;;
60935;SDS011;46804;51.786;19.520;2023-04-03T01:50:08;11.85;;;2.03;;
60935;SDS011;46804;51.786;19.520;2023-04-03T01:54:09;4.88;;;2.00;;
60935;SDS011;46804;51.786;19.520;2023-04-03T01:58:10;4.78;;;1.83;;
60935;SDS011;46804;51.786;19.520;2023-04-03T02:02:10;3.08;;;1.67;;
60935;SDS011;46804;51.786;19.520;2023-04-03T02:06:12;3.20;;;1.75;;
60935;SDS011;46804;51.786;19.520;2023-04-03T02:10:13;4.43;;;2.03;;
60935;SDS011;46804;51.786;19.520;2023-04-03T02:14:14;2.95;;;2.05;;
60935;SDS011;46804;51.786;19.520;2023-04-03T02:18:15;3.72;;;1.75;;
60935;SDS011;46804;51.786;19.520;2023-04-03T02:22:16;2.30;;;1.60;;
60935;SDS011;46804;51.786;19.520;2023-04-03T02:26:17;2.13;;;1.45;;
60935;SDS011;46804;51.786;19.520;2023-04-03T02:30:18;6.15;;;2.00;;
60935;SDS011;46804;51.786;19.520;2023-04-03T02:34:19;5.68;;;1.50;;
60935;SDS011;46804;51.786;19.520;2023-04-03T02:38:20;2.17;;;1.52;;
60935;SDS011;46804;51.786;19.520;2023-04-03T02:42:21;4.40;;;1.75;;
60935;SDS011;46804;51.786;19.520;2023-04-03T02:46:22;3.83;;;2.30;;
60935;SDS011;46804;51.786;19.520;2023-04-03T02:50:22;3.13;;;2.00;;
60935;SDS011;46804;51.786;19.520;2023-04-03T02:54:23;7.90;;;2.00;;
60935;SDS011;46804;51.786;19.520;2023-04-03T02:58:28;2.85;;;1.85;;
60935;SDS011;46804;51.786;19.520;2023-04-03T03:02:28;3.22;;;1.90;;
60935;SDS011;46804;51.786;19.520;2023-04-03T03:06:29;3.15;;;1.90;;
60935;SDS011;46804;51.786;19.520;2023-04-03T03:10:30;2.70;;;1.70;;
60935;SDS011;46804;51.786;19.520;2023-04-03T03:14:31;4.28;;;1.70;;
60935;SDS011;46804;51.786;19.520;2023-04-03T03:18:32;2.33;;;1.60;;
60935;SDS011;46804;51.786;19.520;2023-04-03T03:22:33;3.85;;;2.03;;
60935;SDS011;46804;51.786;19.520;2023-04-03T03:26:35;4.85;;;2.25;;
60935;SDS011;46804;51.786;19.520;2023-04-03T03:30:39;4.65;;;1.45;;
60935;SDS011;46804;51.786;19.520;2023-04-03T03:34:39;2.47;;;2.03;;
60935;SDS011;46804;51.786;19.520;2023-04-03T03:38:40;6.55;;;2.28;;
60935;SDS011;46804;51.786;19.520;2023-04-03T03:42:41;4.13;;;2.22;;
60935;SDS011;46804;51.786;19.520;2023-04-03T03:46:42;3.85;;;2.28;;
60935;SDS011;46804;51.786;19.520;2023-04-03T03:50:42;3.45;;;2.22;;
60935;SDS011;46804;51.786;19.520;2023-04-03T03:54:43;2.25;;;1.75;;
60935;SDS011;46804;51.786;19.520;2023-04-03T03:58:44;3.10;;;1.67;;
60935;SDS011;46804;51.786;19.520;2023-04-03T04:02:45;2.15;;;1.60;;
60935;SDS011;46804;51.786;19.520;2023-04-03T04:06:46;5.72;;;1.63;;
60935;SDS011;46804;51.786;19.520;2023-04-03T04:10:46;3.33;;;2.08;;
60935;SDS011;46804;51.786;19.520;2023-04-03T04:14:47;3.88;;;1.70;;
60935;SDS011;46804;51.786;19.520;2023-04-03T04:18:48;3.13;;;1.65;;
60935;SDS011;46804;51.786;19.520;2023-04-03T04:22:49;3.45;;;1.98;;
60935;SDS011;46804;51.786;19.520;2023-04-03T04:26:49;2.38;;;1.52;;
60935;SDS011;46804;51.786;19.520;2023-04-03T04:30:50;6.03;;;1.45;;
60935;SDS011;46804;51.786;19.520;2023-04-03T04:34:51;3.10;;;1.88;;
60935;SDS011;46804;51.786;19.520;2023-04-03T04:38:51;1.63;;;1.35;;
60935;SDS011;46804;51.786;19.520;2023-04-03T04:42:53;4.93;;;2.10;;
60935;SDS011;46804;51.786;19.520;2023-04-03T04:46:53;2.85;;;1.60;;
60935;SDS011;46804;51.786;19.520;2023-04-03T04:50:54;3.30;;;2.42;;
60935;SDS011;46804;51.786;19.520;2023-04-03T04:54:55;3.50;;;1.77;;
60935;SDS011;46804;51.786;19.520;2023-04-03T04:58:55;1.65;;;1.50;;
60935;SDS011;46804;51.786;19.520;2023-04-03T05:02:56;1.83;;;1.52;;
60935;SDS011;46804;51.786;19.520;2023-04-03T05:06:57;3.83;;;1.98;;
60935;SDS011;46804;51.786;19.520;2023-04-03T05:10:57;3.72;;;1.85;;
60935;SDS011;46804;51.786;19.520;2023-04-03T05:14:58;1.58;;;1.30;;
60935;SDS011;46804;51.786;19.520;2023-04-03T05:18:59;3.55;;;1.98;;
60935;SDS011;46804;51.786;19.520;2023-04-03T05:23:00;3.40;;;2.03;;
60935;SDS011;46804;51.786;19.520;2023-04-03T05:27:00;9.90;;;2.70;;
60935;SDS011;46804;51.786;19.520;2023-04-03T05:31:01;2.67;;;1.83;;
60935;SDS011;46804;51.786;19.520;2023-04-03T05:35:02;6.18;;;2.70;;
60935;SDS011;46804;51.786;19.520;2023-04-03T05:39:03;1.80;;;1.70;;
60935;SDS011;46804;51.786;19.520;2023-04-03T05:43:04;4.07;;;2.20;;
60935;SDS011;46804;51.786;19.520;2023-04-03T05:47:05;4.82;;;2.30;;
60935;SDS011;46804;51.786;19.520;2023-04-03T05:51:06;6.47;;;2.58;;
60935;SDS011;46804;51.786;19.520;2023-04-03T05:55:07;2.13;;;1.83;;
60935;SDS011;46804;51.786;19.520;2023-04-03T05:59:08;2.65;;;1.73;;
60935;SDS011;46804;51.786;19.520;2023-04-03T06:03:09;3.38;;;2.10;;
60935;SDS011;46804;51.786;19.520;2023-04-03T06:07:11;4.63;;;2.95;;
60935;SDS011;46804;51.786;19.520;2023-04-03T06:11:16;5.88;;;2.60;;
60935;SDS011;46804;51.786;19.520;2023-04-03T06:15:17;3.75;;;2.45;;
60935;SDS011;46804;51.786;19.520;2023-04-03T06:19:18;1.98;;;1.60;;
60935;SDS011;46804;51.786;19.520;2023-04-03T06:23:19;4.57;;;1.90;;
60935;SDS011;46804;51.786;19.520;2023-04-03T06:27:19;3.65;;;2.03;;
60935;SDS011;46804;51.786;19.520;2023-04-03T06:31:20;4.18;;;2.13;;
60935;SDS011;46804;51.786;19.520;2023-04-03T06:35:21;3.30;;;2.28;;
60935;SDS011;46804;51.786;19.520;2023-04-03T06:39:24;5.50;;;2.58;;
60935;SDS011;46804;51.786;19.520;2023-04-03T06:43:24;4.60;;;2.30;;
60935;SDS011;46804;51.786;19.520;2023-04-03T06:47:25;3.72;;;2.15;;
60935;SDS011;46804;51.786;19.520;2023-04-03T06:51:26;6.88;;;2.67;;
60935;SDS011;46804;51.786;19.520;2023-04-03T06:55:28;4.50;;;2.17;;
60935;SDS011;46804;51.786;19.520;2023-04-03T06:59:29;4.63;;;2.60;;
60935;SDS011;46804;51.786;19.520;2023-04-03T07:03:30;5.90;;;2.40;;
60935;SDS011;46804;51.786;19.520;2023-04-03T07:07:31;5.68;;;2.63;;
60935;SDS011;46804;51.786;19.520;2023-04-03T07:11:33;6.57;;;2.72;;
60935;SDS011;46804;51.786;19.520;2023-04-03T07:15:34;3.65;;;1.92;;
60935;SDS011;46804;51.786;19.520;2023-04-03T07:19:36;2.35;;;1.65;;
60935;SDS011;46804;51.786;19.520;2023-04-03T07:23:37;5.85;;;2.10;;
60935;SDS011;46804;51.786;19.520;2023-04-03T07:27:37;5.32;;;2.35;;
60935;SDS011;46804;51.786;19.520;2023-04-03T07:31:38;3.47;;;2.35;;
60935;SDS011;46804;51.786;19.520;2023-04-03T07:35:41;2.75;;;1.67;;
60935;SDS011;46804;51.786;19.520;2023-04-03T07:39:45;3.08;;;1.65;;
60935;SDS011;46804;51.786;19.520;2023-04-03T07:43:46;4.78;;;1.67;;
60935;SDS011;46804;51.786;19.520;2023-04-03T07:47:47;3.05;;;1.73;;
60935;SDS011;46804;51.786;19.520;2023-04-03T07:51:48;3.42;;;1.90;;
60935;SDS011;46804;51.786;19.520;2023-04-03T07:55:49;3.83;;;1.95;;
60935;SDS011;46804;51.786;19.520;2023-04-03T07:59:51;4.97;;;2.17;;
60935;SDS011;46804;51.786;19.520;2023-04-03T08:03:52;2.58;;;1.50;;
60935;SDS011;46804;51.786;19.520;2023-04-03T08:07:53;3.47;;;2.00;;
60935;SDS011;46804;51.786;19.520;2023-04-03T08:11:54;4.15;;;2.40;;
60935;SDS011;46804;51.786;19.520;2023-04-03T08:15:54;4.32;;;2.03;;
60935;SDS011;46804;51.786;19.520;2023-04-03T08:19:57;2.63;;;1.63;;
60935;SDS011;46804;51.786;19.520;2023-04-03T08:23:58;2.90;;;1.90;;
60935;SDS011;46804;51.786;19.520;2023-04-03T08:27:59;7.47;;;2.35;;
60935;SDS011;46804;51.786;19.520;2023-04-03T08:32:00;2.83;;;1.70;;
60935;SDS011;46804;51.786;19.520;2023-04-03T08:36:01;3.47;;;1.90;;
60935;SDS011;46804;51.786;19.520;2023-04-03T08:40:04;4.45;;;1.65;;
60935;SDS011;46804;51.786;19.520;2023-04-03T08:48:36;4.28;;;2.10;;
60935;SDS011;46804;51.786;19.520;2023-04-03T08:56:48;7.03;;;1.85;;
60935;SDS011;46804;51.786;19.520;2023-04-03T09:01:17;3.67;;;1.75;;
60935;SDS011;46804;51.786;19.520;2023-04-03T09:09:41;3.72;;;1.90;;
60935;SDS011;46804;51.786;19.520;2023-04-03T09:13:49;3.55;;;2.15;;
60935;SDS011;46804;51.786;19.520;2023-04-03T09:22:21;6.70;;;2.00;;
60935;SDS011;46804;51.786;19.520;2023-04-03T09:26:28;3.72;;;1.90;;
60935;SDS011;46804;51.786;19.520;2023-04-03T09:30:32;2.55;;;1.40;;
60935;SDS011;46804;51.786;19.520;2023-04-03T09:34:36;5.20;;;2.25;;
60935;SDS011;46804;51.786;19.520;2023-04-03T09:38:37;4.25;;;2.25;;
60935;SDS011;46804;51.786;19.520;2023-04-03T09:42:38;5.20;;;1.95;;
60935;SDS011;46804;51.786;19.520;2023-04-03T09:46:42;4.72;;;2.50;;
60935;SDS011;46804;51.786;19.520;2023-04-03T09:55:05;3.10;;;1.70;;
60935;SDS011;46804;51.786;19.520;2023-04-03T09:59:14;3.08;;;1.92;;
60935;SDS011;46804;51.786;19.520;2023-04-03T10:03:24;4.57;;;1.88;;
60935;SDS011;46804;51.786;19.520;2023-04-03T10:11:36;5.28;;;2.15;;
60935;SDS011;46804;51.786;19.520;2023-04-03T10:15:44;3.28;;;2.00;;
60935;SDS011;46804;51.786;19.520;2023-04-03T10:33:08;4.03;;;2.05;;
60935;SDS011;46804;51.786;19.520;2023-04-03T10:45:57;3.45;;;1.65;;
60935;SDS011;46804;51.786;19.520;2023-04-03T10:54:49;3.95;;;2.30;;
60935;SDS011;46804;51.786;19.520;2023-04-03T10:58:56;2.45;;;1.58;;
60935;SDS011;46804;51.786;19.520;2023-04-03T11:03:07;2.97;;;1.70;;
60935;SDS011;46804;51.786;19.520;2023-04-03T11:07:18;3.42;;;1.50;;
60935;SDS011;46804;51.786;19.520;2023-04-03T11:11:40;3.08;;;1.80;;
60935;SDS011;46804;51.786;19.520;2023-04-03T11:15:43;5.28;;;1.92;;
60935;SDS011;46804;51.786;19.520;2023-04-03T11:24:17;3.60;;;1.90;;
60935;SDS011;46804;51.786;19.520;2023-04-03T11:28:24;2.58;;;1.70;;
60935;SDS011;46804;51.786;19.520;2023-04-03T11:37:41;3.45;;;1.67;;
60935;SDS011;46804;51.786;19.520;2023-04-03T11:41:38;2.83;;;1.70;;
60935;SDS011;46804;51.786;19.520;2023-04-03T11:45:53;2.65;;;1.70;;
60935;SDS011;46804;51.786;19.520;2023-04-03T11:58:43;5.10;;;1.67;;
60935;SDS011;46804;51.786;19.520;2023-04-03T12:07:23;2.58;;;1.75;;
60935;SDS011;46804;51.786;19.520;2023-04-03T12:11:25;3.70;;;1.70;;
60935;SDS011;46804;51.786;19.520;2023-04-03T12:19:36;3.28;;;1.73;;
60935;SDS011;46804;51.786;19.520;2023-04-03T12:24:44;3.05;;;1.55;;
60935;SDS011;46804;51.786;19.520;2023-04-03T12:28:16;2.65;;;1.80;;
60935;SDS011;46804;51.786;19.520;2023-04-03T12:45:24;2.50;;;1.38;;
60935;SDS011;46804;51.786;19.520;2023-04-03T12:53:33;1.67;;;1.30;;
60935;SDS011;46804;51.786;19.520;2023-04-03T12:57:35;3.08;;;1.60;;
60935;SDS011;46804;51.786;19.520;2023-04-03T13:01:36;2.72;;;1.60;;
60935;SDS011;46804;51.786;19.520;2023-04-03T13:05:37;4.78;;;1.75;;
60935;SDS011;46804;51.786;19.520;2023-04-03T13:09:38;7.53;;;2.00;;
60935;SDS011;46804;51.786;19.520;2023-04-03T13:13:39;1.77;;;1.30;;
60935;SDS011;46804;51.786;19.520;2023-04-03T13:17:41;3.90;;;1.83;;
60935;SDS011;46804;51.786;19.520;2023-04-03T13:21:43;2.92;;;1.70;;
60935;SDS011;46804;51.786;19.520;2023-04-03T13:25:45;2.30;;;1.42;;
60935;SDS011;46804;51.786;19.520;2023-04-03T13:29:51;2.53;;;1.58;;
60935;SDS011;46804;51.786;19.520;2023-04-03T13:34:02;3.55;;;1.83;;
60935;SDS011;46804;51.786;19.520;2023-04-03T13:38:22;3.20;;;1.58;;
60935;SDS011;46804;51.786;19.520;2023-04-03T13:42:29;2.42;;;1.48;;
60935;SDS011;46804;51.786;19.520;2023-04-03T13:46:32;4.18;;;1.63;;
60935;SDS011;46804;51.786;19.520;2023-04-03T13:50:32;2.88;;;1.77;;
60935;SDS011;46804;51.786;19.520;2023-04-03T13:54:37;2.65;;;1.50;;
60935;SDS011;46804;51.786;19.520;2023-04-03T13:58:38;3.10;;;1.70;;
60935;SDS011;46804;51.786;19.520;2023-04-03T14:02:40;1.50;;;1.40;;
60935;SDS011;46804;51.786;19.520;2023-04-03T14:06:41;2.20;;;1.52;;
60935;SDS011;46804;51.786;19.520;2023-04-03T14:10:42;4.55;;;2.22;;
60935;SDS011;46804;51.786;19.520;2023-04-03T14:14:43;3.85;;;1.80;;
60935;SDS011;46804;51.786;19.520;2023-04-03T14:18:46;4.22;;;2.05;;
60935;SDS011;46804;51.786;19.520;2023-04-03T14:22:48;2.85;;;1.65;;
60935;SDS011;46804;51.786;19.520;2023-04-03T14:26:50;1.73;;;1.40;;
60935;SDS011;46804;51.786;19.520;2023-04-03T14:30:52;3.28;;;1.73;;
60935;SDS011;46804;51.786;19.520;2023-04-03T14:34:53;2.83;;;1.83;;
60935;SDS011;46804;51.786;19.520;2023-04-03T14:38:54;3.80;;;1.67;;
60935;SDS011;46804;51.786;19.520;2023-04-03T14:42:55;3.00;;;1.60;;
60935;SDS011;46804;51.786;19.520;2023-04-03T14:46:57;2.90;;;1.67;;
60935;SDS011;46804;51.786;19.520;2023-04-03T14:50:58;6.93;;;2.08;;
60935;SDS011;46804;51.786;19.520;2023-04-03T14:54:59;2.58;;;1.60;;
60935;SDS011;46804;51.786;19.520;2023-04-03T14:59:01;5.30;;;1.90;;
60935;SDS011;46804;51.786;19.520;2023-04-03T15:03:02;3.72;;;1.77;;
60935;SDS011;46804;51.786;19.520;2023-04-03T15:07:02;3.40;;;1.70;;
60935;SDS011;46804;51.786;19.520;2023-04-03T15:11:03;3.00;;;1.83;;
60935;SDS011;46804;51.786;19.520;2023-04-03T15:15:04;2.97;;;1.73;;
60935;SDS011;46804;51.786;19.520;2023-04-03T15:19:05;5.32;;;2.58;;
60935;SDS011;46804;51.786;19.520;2023-04-03T15:23:08;4.75;;;1.95;;
60935;SDS011;46804;51.786;19.520;2023-04-03T15:31:11;3.45;;;1.92;;
60935;SDS011;46804;51.786;19.520;2023-04-03T15:35:13;4.68;;;1.92;;
60935;SDS011;46804;51.786;19.520;2023-04-03T15:39:14;5.22;;;1.75;;
60935;SDS011;46804;51.786;19.520;2023-04-03T15:43:16;3.05;;;1.80;;
60935;SDS011;46804;51.786;19.520;2023-04-03T15:47:17;3.60;;;1.92;;
60935;SDS011;46804;51.786;19.520;2023-04-03T15:51:18;6.30;;;2.45;;
60935;SDS011;46804;51.786;19.520;2023-04-03T15:55:22;3.92;;;2.05;;
60935;SDS011;46804;51.786;19.520;2023-04-03T15:59:26;3.67;;;2.03;;
60935;SDS011;46804;51.786;19.520;2023-04-03T16:03:29;5.03;;;1.80;;
60935;SDS011;46804;51.786;19.520;2023-04-03T16:07:30;3.08;;;1.88;;
60935;SDS011;46804;51.786;19.520;2023-04-03T16:11:31;3.03;;;2.05;;
60935;SDS011;46804;51.786;19.520;2023-04-03T16:15:31;2.50;;;1.80;;
60935;SDS011;46804;51.786;19.520;2023-04-03T16:19:34;3.05;;;1.80;;
60935;SDS011;46804;51.786;19.520;2023-04-03T16:23:35;5.90;;;2.30;;
60935;SDS011;46804;51.786;19.520;2023-04-03T16:27:36;5.07;;;2.40;;
60935;SDS011;46804;51.786;19.520;2023-04-03T16:31:38;3.38;;;2.33;;
60935;SDS011;46804;51.786;19.520;2023-04-03T16:35:39;2.97;;;2.20;;
60935;SDS011;46804;51.786;19.520;2023-04-03T16:39:43;3.22;;;2.17;;
60935;SDS011;46804;51.786;19.520;2023-04-03T16:43:44;3.83;;;1.90;;
60935;SDS011;46804;51.786;19.520;2023-04-03T16:47:45;3.95;;;2.33;;
60935;SDS011;46804;51.786;19.520;2023-04-03T16:51:45;4.68;;;2.10;;
60935;SDS011;46804;51.786;19.520;2023-04-03T16:55:47;2.83;;;1.80;;
60935;SDS011;46804;51.786;19.520;2023-04-03T16:59:49;5.10;;;2.25;;
60935;SDS011;46804;51.786;19.520;2023-04-03T17:03:50;3.38;;;2.10;;
60935;SDS011;46804;51.786;19.520;2023-04-03T17:07:51;5.63;;;2.17;;
60935;SDS011;46804;51.786;19.520;2023-04-03T17:11:51;4.65;;;2.08;;
60935;SDS011;46804;51.786;19.520;2023-04-03T17:15:52;3.97;;;2.47;;
60935;SDS011;46804;51.786;19.520;2023-04-03T17:19:53;5.18;;;2.20;;
60935;SDS011;46804;51.786;19.520;2023-04-03T17:23:56;4.13;;;2.42;;
60935;SDS011;46804;51.786;19.520;2023-04-03T17:31:59;4.65;;;2.25;;
60935;SDS011;46804;51.786;19.520;2023-04-03T17:36:00;3.35;;;2.08;;
60935;SDS011;46804;51.786;19.520;2023-04-03T17:40:04;6.50;;;2.22;;
60935;SDS011;46804;51.786;19.520;2023-04-03T17:44:06;4.38;;;2.00;;
60935;SDS011;46804;51.786;19.520;2023-04-03T17:48:07;2.72;;;2.17;;
60935;SDS011;46804;51.786;19.520;2023-04-03T17:52:07;4.22;;;2.47;;
60935;SDS011;46804;51.786;19.520;2023-04-03T17:56:09;2.90;;;2.28;;
60935;SDS011;46804;51.786;19.520;2023-04-03T18:04:13;3.30;;;2.08;;
60935;SDS011;46804;51.786;19.520;2023-04-03T18:08:14;5.55;;;2.13;;
60935;SDS011;46804;51.786;19.520;2023-04-03T18:12:17;7.55;;;2.42;;
60935;SDS011;46804;51.786;19.520;2023-04-03T18:16:18;6.97;;;2.30;;
60935;SDS011;46804;51.786;19.520;2023-04-03T18:20:19;5.45;;;2.42;;
60935;SDS011;46804;51.786;19.520;2023-04-03T18:24:20;4.32;;;2.70;;
60935;SDS011;46804;51.786;19.520;2023-04-03T18:28:22;3.00;;;2.05;;
60935;SDS011;46804;51.786;19.520;2023-04-03T18:32:23;9.63;;;2.67;;
60935;SDS011;46804;51.786;19.520;2023-04-03T18:36:24;5.60;;;3.03;;
60935;SDS011;46804;51.786;19.520;2023-04-03T18:40:26;6.90;;;3.28;;
60935;SDS011;46804;51.786;19.520;2023-04-03T18:44:28;6.25;;;2.65;;
60935;SDS011;46804;51.786;19.520;2023-04-03T18:48:34;5.70;;;3.00;;
60935;SDS011;46804;51.786;19.520;2023-04-03T18:52:35;6.20;;;3.25;;
60935;SDS011;46804;51.786;19.520;2023-04-03T18:56:37;8.32;;;3.22;;
60935;SDS011;46804;51.786;19.520;2023-04-03T19:00:38;4.97;;;2.75;;
60935;SDS011;46804;51.786;19.520;2023-04-03T19:04:40;5.93;;;2.73;;
60935;SDS011;46804;51.786;19.520;2023-04-03T19:08:41;5.65;;;2.85;;
60935;SDS011;46804;51.786;19.520;2023-04-03T19:12:43;4.15;;;2.40;;
60935;SDS011;46804;51.786;19.520;2023-04-03T19:16:44;3.42;;;2.28;;
60935;SDS011;46804;51.786;19.520;2023-04-03T19:20:45;4.85;;;2.58;;
60935;SDS011;46804;51.786;19.520;2023-04-03T19:24:46;4.10;;;2.40;;
60935;SDS011;46804;51.786;19.520;2023-04-03T19:28:46;4.68;;;2.70;;
60935;SDS011;46804;51.786;19.520;2023-04-03T19:32:50;3.30;;;2.10;;
60935;SDS011;46804;51.786;19.520;2023-04-03T19:36:51;3.33;;;2.55;;
60935;SDS011;46804;51.786;19.520;2023-04-03T19:40:52;11.70;;;3.85;;
60935;SDS011;46804;51.786;19.520;2023-04-03T19:44:53;7.03;;;2.90;;
60935;SDS011;46804;51.786;19.520;2023-04-03T19:48:54;5.65;;;2.85;;
60935;SDS011;46804;51.786;19.520;2023-04-03T19:52:55;5.13;;;2.22;;
60935;SDS011;46804;51.786;19.520;2023-04-03T19:56:56;3.35;;;2.15;;
60935;SDS011;46804;51.786;19.520;2023-04-03T20:00:57;5.53;;;2.85;;
60935;SDS011;46804;51.786;19.520;2023-04-03T20:04:58;5.35;;;2.33;;
60935;SDS011;46804;51.786;19.520;2023-04-03T20:08:59;5.90;;;2.75;;
60935;SDS011;46804;51.786;19.520;2023-04-03T20:13:01;9.90;;;2.40;;
60935;SDS011;46804;51.786;19.520;2023-04-03T20:17:03;3.40;;;2.00;;
60935;SDS011;46804;51.786;19.520;2023-04-03T20:21:05;3.63;;;2.53;;
60935;SDS011;46804;51.786;19.520;2023-04-03T20:25:07;6.03;;;3.10;;
60935;SDS011;46804;51.786;19.520;2023-04-03T20:29:09;8.80;;;3.40;;
60935;SDS011;46804;51.786;19.520;2023-04-03T20:33:10;5.47;;;2.70;;
60935;SDS011;46804;51.786;19.520;2023-04-03T20:37:11;5.25;;;2.38;;
60935;SDS011;46804;51.786;19.520;2023-04-03T20:41:16;7.43;;;2.88;;
60935;SDS011;46804;51.786;19.520;2023-04-03T20:49:17;6.30;;;3.17;;
60935;SDS011;46804;51.786;19.520;2023-04-03T20:53:18;1.98;;;1.77;;
60935;SDS011;46804;51.786;19.520;2023-04-03T20:57:20;4.78;;;2.40;;
60935;SDS011;46804;51.786;19.520;2023-04-03T21:01:21;4.28;;;2.85;;
60935;SDS011;46804;51.786;19.520;2023-04-03T21:05:23;5.18;;;2.33;;
60935;SDS011;46804;51.786;19.520;2023-04-03T21:23:03;5.03;;;2.53;;
60935;SDS011;46804;51.786;19.520;2023-04-03T21:27:04;2.15;;;1.95;;
60935;SDS011;46804;51.786;19.520;2023-04-03T21:31:05;9.10;;;2.53;;
60935;SDS011;46804;51.786;19.520;2023-04-03T21:35:06;5.93;;;2.90;;
60935;SDS011;46804;51.786;19.520;2023-04-03T21:39:08;4.40;;;2.70;;
60935;SDS011;46804;51.786;19.520;2023-04-03T21:43:09;9.30;;;2.78;;
60935;SDS011;46804;51.786;19.520;2023-04-03T21:47:10;6.25;;;3.45;;
60935;SDS011;46804;51.786;19.520;2023-04-03T21:51:11;7.75;;;2.38;;
60935;SDS011;46804;51.786;19.520;2023-04-03T21:55:12;6.93;;;3.78;;
60935;SDS011;46804;51.786;19.520;2023-04-03T21:59:14;3.63;;;2.78;;
60935;SDS011;46804;51.786;19.520;2023-04-03T22:03:18;12.35;;;3.60;;
60935;SDS011;46804;51.786;19.520;2023-04-03T22:07:20;7.18;;;3.42;;
60935;SDS011;46804;51.786;19.520;2023-04-03T22:11:21;3.90;;;2.53;;
60935;SDS011;46804;51.786;19.520;2023-04-03T22:15:24;5.93;;;3.73;;
60935;SDS011;46804;51.786;19.520;2023-04-03T22:19:24;7.72;;;3.17;;
60935;SDS011;46804;51.786;19.520;2023-04-03T22:23:25;3.13;;;2.55;;
60935;SDS011;46804;51.786;19.520;2023-04-03T22:27:26;5.20;;;2.53;;
60935;SDS011;46804;51.786;19.520;2023-04-03T22:31:27;7.45;;;2.55;;
60935;SDS011;46804;51.786;19.520;2023-04-03T22:35:28;5.88;;;2.67;;
60935;SDS011;46804;51.786;19.520;2023-04-03T22:39:28;4.63;;;2.35;;
60935;SDS011;46804;51.786;19.520;2023-04-03T22:43:29;4.65;;;2.53;;
60935;SDS011;46804;51.786;19.520;2023-04-03T22:47:31;7.53;;;2.67;;
60935;SDS011;46804;51.786;19.520;2023-04-03T22:51:32;4.68;;;2.80;;
60935;SDS011;46804;51.786;19.520;2023-04-03T22:55:33;3.65;;;2.13;;
60935;SDS011;46804;51.786;19.520;2023-04-03T22:59:34;3.17;;;2.13;;
60935;SDS011;46804;51.786;19.520;2023-04-03T23:03:35;5.63;;;3.00;;
60935;SDS011;46804;51.786;19.520;2023-04-03T23:07:38;5.18;;;2.63;;
60935;SDS011;46804;51.786;19.520;2023-04-03T23:11:39;3.90;;;2.30;;
60935;SDS011;46804;51.786;19.520;2023-04-03T23:15:40;5.50;;;3.03;;
60935;SDS011;46804;51.786;19.520;2023-04-03T23:19:40;3.92;;;2.50;;
60935;SDS011;46804;51.786;19.520;2023-04-03T23:23:41;4.72;;;2.75;;
60935;SDS011;46804;51.786;19.520;2023-04-03T23:27:48;5.75;;;3.20;;
60935;SDS011;46804;51.786;19.520;2023-04-03T23:31:50;9.38;;;3.70;;
60935;SDS011;46804;51.786;19.520;2023-04-03T23:35:51;6.88;;;2.25;;
60935;SDS011;46804;51.786;19.520;2023-04-03T23:39:52;3.65;;;2.17;;
60935;SDS011;46804;51.786;19.520;2023-04-03T23:43:52;5.60;;;2.83;;
60935;SDS011;46804;51.786;19.520;2023-04-03T23:47:53;7.10;;;3.75;;
60935;SDS011;46804;51.786;19.520;2023-04-03T23:51:54;3.28;;;2.60;;
60935;SDS011;46804;51.786;19.520;2023-04-03T23:55:56;2.42;;;2.05;;
60935;SDS011;46804;51.786;19.520;2023-04-03T23:59:57;3.80;;;2.58;;
